Time;durP1;ratioP1;P1;durP2;ratioP2;P2;SDS_P1;SDS_P2;PMS_P1;PMS_P2;Temp;Humidity;BMP_temperature;BMP_pressure;BME280_temperature;BME280_humidity;BME280_pressure;Samples;Min_cycle;Max_cycle;Signal;HPM_P1;HPM_P2
2023/06/01 00:01:51;;;;;;;1.30;1.05;;;11.10;1.00;;;;;;5127919;27;20089;-77
2023/06/01 00:04:17;;;;;;;1.00;0.85;;;11.00;1.00;;;;;;5127559;27;20046;-77
2023/06/01 00:06:43;;;;;;;0.93;0.57;;;11.00;32.20;;;;;;5127797;27;20047;-77
2023/06/01 00:09:09;;;;;;;0.30;0.30;;;11.00;1.00;;;;;;5127165;27;20126;-77
2023/06/01 00:11:35;;;;;;;0.22;0.22;;;11.00;99.90;;;;;;5127195;27;20126;-77
2023/06/01 00:14:01;;;;;;;0.30;0.30;;;11.00;99.90;;;;;;5127242;27;20347;-77
2023/06/01 00:16:27;;;;;;;0.20;0.20;;;11.00;1.00;;;;;;5127574;27;20107;-77
2023/06/01 00:18:55;;;;;;;0.17;0.10;;;11.00;99.90;;;;;;5127689;27;20192;-77
2023/06/01 00:21:22;;;;;;;0.43;0.10;;;10.90;1.00;;;;;;5127547;27;20047;-77
2023/06/01 00:23:48;;;;;;;10.23;2.22;;;11.00;27.90;;;;;;5127470;27;20051;-76
2023/06/01 00:26:14;;;;;;;0.28;0.28;;;10.90;94.10;;;;;;5127576;27;20092;-77
2023/06/01 00:28:39;;;;;;;0.38;0.38;;;10.90;81.20;;;;;;5127307;27;20043;-77
2023/06/01 00:31:05;;;;;;;0.98;0.55;;;10.90;99.90;;;;;;5108206;27;20047;-77
2023/06/01 00:33:31;;;;;;;1.05;0.73;;;10.90;99.90;;;;;;5108331;27;20405;-77
2023/06/01 00:35:56;;;;;;;0.28;0.25;;;10.90;99.90;;;;;;5126824;27;20063;-76
2023/06/01 00:38:22;;;;;;;0.00;0.00;;;10.90;90.60;;;;;;5126672;27;20078;-77
2023/06/01 00:40:50;;;;;;;1.70;0.70;;;10.80;1.00;;;;;;5126854;27;20043;-76
2023/06/01 00:43:16;;;;;;;0.40;0.38;;;10.90;1.00;;;;;;5126955;27;20049;-77
2023/06/01 00:45:42;;;;;;;2.38;0.43;;;10.90;1.00;;;;;;5126973;27;20067;-77
2023/06/01 00:48:09;;;;;;;5.10;1.42;;;10.80;1.00;;;;;;5126484;27;20047;-77
2023/06/01 00:50:35;;;;;;;0.25;0.25;;;10.80;1.00;;;;;;5126595;27;20043;-77
2023/06/01 00:53:03;;;;;;;0.75;0.60;;;10.80;1.00;;;;;;5126444;27;20047;-77
2023/06/01 00:55:28;;;;;;;0.60;0.35;;;10.80;72.10;;;;;;5126329;27;20043;-77
2023/06/01 00:57:55;;;;;;;0.30;0.20;;;10.80;79.20;;;;;;5126883;27;20122;-77
2023/06/01 01:00:22;;;;;;;5.97;2.38;;;10.80;99.90;;;;;;5126142;27;20043;-77
2023/06/01 01:02:48;;;;;;;1.10;0.93;;;10.80;99.90;;;;;;5126337;27;20055;-77
2023/06/01 01:05:15;;;;;;;1.02;0.80;;;11.20;95.90;;;;;;5126764;27;20043;-77
2023/06/01 01:07:41;;;;;;;0.60;0.40;;;10.70;30.00;;;;;;5126270;27;20046;-77
2023/06/01 01:10:23;;;;;;;0.00;0.00;;;10.70;24.50;;;;;;5126108;27;20050;-77
2023/06/01 01:13:03;;;;;;;0.00;0.00;;;10.70;99.90;;;;;;5126400;27;20055;-77
2023/06/01 01:15:41;;;;;;;0.73;0.73;;;10.70;99.90;;;;;;5126534;27;20143;-77
2023/06/01 01:18:17;;;;;;;1.33;0.77;;;10.80;71.20;;;;;;5108118;27;20051;-77
2023/06/01 01:20:46;;;;;;;1.45;1.13;;;10.70;99.90;;;;;;5126406;27;20043;-76
2023/06/01 01:23:39;;;;;;;0.00;0.00;;;10.80;99.90;;;;;;5107526;27;20508;-77
2023/06/01 01:26:23;;;;;;;0.57;0.50;;;10.80;99.90;;;;;;5126962;27;20068;-77
2023/06/01 01:29:00;;;;;;;0.10;0.10;;;10.80;99.90;;;;;;5126190;27;20043;-76
2023/06/01 01:31:27;;;;;;;2.25;0.63;;;10.80;99.90;;;;;;5126126;27;20484;-76
2023/06/01 01:33:55;;;;;;;1.10;1.02;;;10.80;99.90;;;;;;5125853;27;20065;-77
2023/06/01 01:36:22;;;;;;;0.00;0.00;;;10.80;99.90;;;;;;5126310;27;20046;-77
2023/06/01 01:38:48;;;;;;;0.40;0.30;;;10.70;95.30;;;;;;5126087;27;20079;-77
2023/06/01 01:41:14;;;;;;;0.30;0.20;;;10.80;38.50;;;;;;5125984;27;20469;-77
2023/06/01 01:43:40;;;;;;;0.45;0.43;;;10.80;1.00;;;;;;5125648;27;20042;-78
2023/06/01 01:46:26;;;;;;;0.50;0.38;;;10.70;1.00;;;;;;5125658;27;20505;-77
2023/06/01 01:48:55;;;;;;;0.47;0.45;;;10.70;1.00;;;;;;5126675;27;20047;-77
2023/06/01 01:51:31;;;;;;;0.52;0.35;;;10.70;2.60;;;;;;5126164;27;20051;-78
2023/06/01 01:53:58;;;;;;;0.15;0.15;;;10.70;52.00;;;;;;5125813;27;20283;-77
2023/06/01 01:56:25;;;;;;;0.15;0.15;;;10.70;72.80;;;;;;5125953;27;20381;-77
2023/06/01 01:58:52;;;;;;;1.75;1.45;;;10.70;1.00;;;;;;5125131;27;20051;-77
2023/06/01 02:01:19;;;;;;;1.48;1.00;;;10.70;1.00;;;;;;5125030;27;20488;-78
2023/06/01 02:03:45;;;;;;;0.30;0.30;;;10.70;1.00;;;;;;5107217;27;20249;-77
2023/06/01 02:06:10;;;;;;;1.67;0.85;;;10.70;1.00;;;;;;5125448;27;20584;-77
2023/06/01 02:08:36;;;;;;;1.10;0.95;;;10.70;1.00;;;;;;5125400;27;20066;-76
2023/06/01 02:11:02;;;;;;;0.30;0.30;;;10.70;99.90;;;;;;5124756;27;20050;-77
2023/06/01 02:13:27;;;;;;;0.35;0.35;;;10.60;1.00;;;;;;5125311;27;20088;-76
2023/06/01 02:15:53;;;;;;;1.20;0.95;;;10.70;1.00;;;;;;5125191;27;20100;-77
2023/06/01 02:18:19;;;;;;;0.35;0.28;;;10.70;1.00;;;;;;5125750;27;20047;-79
2023/06/01 02:20:45;;;;;;;0.35;0.35;;;10.70;1.00;;;;;;5107121;27;20124;-77
2023/06/01 02:23:11;;;;;;;1.35;0.85;;;10.70;1.00;;;;;;5124990;27;20093;-77
2023/06/01 02:25:37;;;;;;;0.30;0.30;;;10.70;1.00;;;;;;5124765;27;20524;-77
2023/06/01 02:28:03;;;;;;;0.05;0.05;;;10.70;54.60;;;;;;5124853;27;20043;-77
2023/06/01 02:30:28;;;;;;;0.35;0.22;;;10.70;29.30;;;;;;5125084;27;20118;-77
2023/06/01 02:32:54;;;;;;;0.10;0.10;;;10.70;1.00;;;;;;5106996;28;20435;-77
2023/06/01 02:35:20;;;;;;;0.85;0.75;;;10.70;25.60;;;;;;5125208;27;20478;-77
2023/06/01 02:37:46;;;;;;;0.08;0.08;;;10.70;99.90;;;;;;5125413;28;20074;-77
2023/06/01 02:40:12;;;;;;;0.08;0.08;;;10.70;99.90;;;;;;5124946;28;20401;-77
2023/06/01 02:42:38;;;;;;;0.70;0.40;;;10.70;99.90;;;;;;5124857;28;20074;-77
2023/06/01 02:45:06;;;;;;;5.68;0.15;;;10.60;69.00;;;;;;5124599;28;20043;-77
2023/06/01 02:47:31;;;;;;;0.25;0.25;;;10.70;99.90;;;;;;5125555;28;20039;-77
2023/06/01 02:49:57;;;;;;;0.10;0.00;;;10.60;82.50;;;;;;5126041;28;20076;-77
2023/06/01 02:52:23;;;;;;;0.47;0.47;;;10.70;49.00;;;;;;5125760;28;20035;-77
2023/06/01 02:54:48;;;;;;;1.00;0.65;;;10.70;64.50;;;;;;5125791;28;20413;-78
2023/06/01 02:57:14;;;;;;;0.82;0.30;;;10.70;99.90;;;;;;5125042;27;20103;-77
2023/06/01 02:59:39;;;;;;;0.55;0.43;;;10.70;99.90;;;;;;5125047;28;20050;-77
2023/06/01 03:02:05;;;;;;;0.60;0.45;;;10.70;99.90;;;;;;5124880;28;20070;-77
2023/06/01 03:04:32;;;;;;;0.03;0.03;;;10.70;99.90;;;;;;5124394;28;20704;-76
2023/06/01 03:06:58;;;;;;;0.57;0.15;;;10.70;99.90;;;;;;5124576;28;20533;-77
2023/06/01 03:09:24;;;;;;;0.32;0.13;;;10.70;99.90;;;;;;5124158;28;20064;-77
2023/06/01 03:11:50;;;;;;;0.00;0.00;;;10.70;95.80;;;;;;5123979;28;20048;-77
2023/06/01 03:14:16;;;;;;;0.38;0.30;;;10.70;24.50;;;;;;5124361;28;20409;-76
2023/06/01 03:16:42;;;;;;;0.20;0.15;;;10.70;15.50;;;;;;5124377;28;20168;-77
2023/06/01 03:19:07;;;;;;;10.05;0.73;;;10.70;5.70;;;;;;5124403;28;20461;-76
2023/06/01 03:21:33;;;;;;;0.00;0.00;;;10.70;37.00;;;;;;5124265;27;20124;-77
2023/06/01 03:23:59;;;;;;;0.00;0.00;;;10.70;75.50;;;;;;5128029;27;20047;-77
2023/06/01 03:26:25;;;;;;;0.20;0.20;;;10.70;99.90;;;;;;5127850;27;20035;-76
2023/06/01 03:28:51;;;;;;;3.92;1.48;;;10.70;99.90;;;;;;5127911;27;20163;-77
2023/06/01 03:31:16;;;;;;;0.52;0.45;;;10.70;88.20;;;;;;5128613;27;20043;-77
2023/06/01 03:33:42;;;;;;;0.00;0.00;;;10.70;99.90;;;;;;5128421;27;20068;-78
2023/06/01 03:36:08;;;;;;;0.80;0.75;;;10.70;99.90;;;;;;5128258;27;20042;-77
2023/06/01 03:38:34;;;;;;;0.00;0.00;;;10.70;99.90;;;;;;5127659;27;20078;-78
2023/06/01 03:41:03;;;;;;;0.38;0.38;;;10.70;99.90;;;;;;5128313;27;20099;-76
2023/06/01 03:43:28;;;;;;;0.63;0.40;;;10.70;99.90;;;;;;5127840;27;20098;-77
2023/06/01 03:45:55;;;;;;;0.22;0.22;;;10.70;99.90;;;;;;5127730;27;20126;-77
2023/06/01 03:48:21;;;;;;;0.00;0.00;;;10.80;99.90;;;;;;5127593;27;20043;-77
2023/06/01 03:50:47;;;;;;;0.20;0.08;;;10.80;99.90;;;;;;5127561;27;20504;-76
2023/06/01 03:53:12;;;;;;;0.00;0.00;;;10.80;99.90;;;;;;5127150;27;20093;-77
2023/06/01 03:55:38;;;;;;;0.22;0.22;;;10.90;99.90;;;;;;5127188;27;20045;-76
2023/06/01 03:58:04;;;;;;;0.80;0.52;;;10.80;99.90;;;;;;5126959;27;20050;-77
2023/06/01 04:00:30;;;;;;;0.10;0.10;;;10.80;99.90;;;;;;5127226;27;20118;-77
2023/06/01 04:02:58;;;;;;;0.20;0.20;;;10.90;99.90;;;;;;5127577;27;20470;-76
2023/06/01 04:05:25;;;;;;;0.13;0.13;;;10.90;99.90;;;;;;5127061;27;20043;-76
2023/06/01 04:07:52;;;;;;;0.25;0.10;;;10.90;99.90;;;;;;5126657;27;20126;-77
2023/06/01 04:10:19;;;;;;;0.25;0.22;;;10.90;99.90;;;;;;5126964;27;20079;-77
2023/06/01 04:12:46;;;;;;;0.10;0.10;;;10.90;99.90;;;;;;5126950;27;20488;-77
2023/06/01 04:15:13;;;;;;;16.67;1.30;;;11.00;99.90;;;;;;5126963;27;20534;-77
2023/06/01 04:17:39;;;;;;;0.52;0.32;;;11.00;99.90;;;;;;5126934;27;20084;-77
2023/06/01 04:20:11;;;;;;;0.00;0.00;;;10.90;99.90;;;;;;5127223;27;20566;-77
2023/06/01 04:22:38;;;;;;;0.10;0.10;;;10.90;99.90;;;;;;5127733;27;20139;-77
2023/06/01 04:25:09;;;;;;;21.92;1.65;;;10.90;1.00;;;;;;5127752;27;20558;-77
2023/06/01 04:27:36;;;;;;;0.73;0.52;;;10.90;1.00;;;;;;5127148;27;20047;-77
2023/06/01 04:30:10;;;;;;;0.73;0.47;;;10.90;1.00;;;;;;5127049;27;20093;-77
2023/06/01 04:32:37;;;;;;;0.17;0.17;;;10.90;1.00;;;;;;5127162;27;20534;-77
2023/06/01 04:35:07;;;;;;;0.20;0.20;;;10.90;1.00;;;;;;5125596;27;20531;-77
2023/06/01 04:37:41;;;;;;;0.50;0.43;;;10.90;1.00;;;;;;5126703;27;20043;-77
2023/06/01 04:40:12;;;;;;;0.00;0.00;;;10.90;1.00;;;;;;5126276;27;20049;-77
2023/06/01 04:42:51;;;;;;;0.40;0.32;;;10.90;1.00;;;;;;5126245;27;20039;-77
2023/06/01 04:45:18;;;;;;;0.68;0.68;;;10.90;1.00;;;;;;5126660;27;20047;-77
2023/06/01 04:47:44;;;;;;;6.32;1.00;;;10.90;1.00;;;;;;5126321;27;20047;-77
2023/06/01 04:50:11;;;;;;;0.38;0.38;;;10.90;1.00;;;;;;5126832;27;20504;-77
2023/06/01 04:52:38;;;;;;;1.52;0.85;;;11.00;1.00;;;;;;5126634;27;20054;-77
2023/06/01 04:55:05;;;;;;;0.20;0.20;;;11.00;1.00;;;;;;5126533;27;20043;-77
2023/06/01 04:57:32;;;;;;;0.45;0.30;;;11.00;1.00;;;;;;5126688;27;20394;-77
2023/06/01 04:59:58;;;;;;;5.03;0.50;;;10.90;1.00;;;;;;5127024;27;20118;-76
2023/06/01 05:02:25;;;;;;;0.00;0.00;;;11.00;1.00;;;;;;5127418;27;20447;-77
2023/06/01 05:04:51;;;;;;;0.00;0.00;;;10.90;1.00;;;;;;5128298;27;20103;-77
2023/06/01 05:07:17;;;;;;;0.13;0.10;;;11.00;12.00;;;;;;5127734;27;20043;-77
2023/06/01 05:09:42;;;;;;;0.47;0.47;;;10.90;1.00;;;;;;5127443;27;20051;-76
2023/06/01 05:12:08;;;;;;;0.15;0.15;;;11.00;20.30;;;;;;5126731;27;20057;-77
2023/06/01 05:14:35;;;;;;;0.08;0.00;;;10.90;21.60;;;;;;5126364;27;20082;-77
2023/06/01 05:17:00;;;;;;;0.00;0.00;;;11.00;81.30;;;;;;5126374;27;20092;-77
2023/06/01 05:19:26;;;;;;;0.05;0.05;;;11.00;99.10;;;;;;5126451;27;20043;-77
2023/06/01 05:21:51;;;;;;;0.20;0.10;;;10.90;99.90;;;;;;5126807;27;20057;-77
2023/06/01 05:24:18;;;;;;;0.10;0.10;;;10.90;99.90;;;;;;5126954;27;20453;-77
2023/06/01 05:26:43;;;;;;;0.57;0.47;;;10.90;99.90;;;;;;5127020;27;20495;-77
2023/06/01 05:29:09;;;;;;;0.55;0.55;;;10.90;99.90;;;;;;5126094;27;20039;-77
2023/06/01 05:31:36;;;;;;;0.00;0.00;;;11.00;99.90;;;;;;5126744;27;20533;-77
2023/06/01 05:34:02;;;;;;;0.00;0.00;;;11.00;99.90;;;;;;5125797;27;20050;-77
2023/06/01 05:36:27;;;;;;;0.80;0.65;;;10.90;99.90;;;;;;5124861;27;20043;-77
2023/06/01 05:38:53;;;;;;;1.50;0.63;;;11.00;99.90;;;;;;5123782;27;20505;-76
2023/06/01 05:41:19;;;;;;;0.00;0.00;;;10.90;99.90;;;;;;5124017;27;20043;-77
2023/06/01 05:43:44;;;;;;;0.43;0.20;;;10.90;99.90;;;;;;5124496;27;20124;-76
2023/06/01 05:46:10;;;;;;;1.95;1.52;;;11.00;99.90;;;;;;5123579;27;20493;-77
2023/06/01 05:48:36;;;;;;;0.00;0.00;;;11.00;99.90;;;;;;5123958;27;20595;-77
2023/06/01 05:51:01;;;;;;;0.00;0.00;;;11.00;99.90;;;;;;5123655;27;20505;-77
2023/06/01 05:53:27;;;;;;;0.88;0.45;;;11.10;99.90;;;;;;5123558;27;20229;-77
2023/06/01 05:55:53;;;;;;;1.30;0.98;;;11.10;99.90;;;;;;5123464;27;20500;-77
2023/06/01 05:58:18;;;;;;;0.57;0.57;;;11.20;99.90;;;;;;5123374;27;20079;-76
2023/06/01 06:00:44;;;;;;;0.90;0.52;;;11.20;99.90;;;;;;5123673;27;20047;-77
2023/06/01 06:03:10;;;;;;;0.00;0.00;;;11.10;99.90;;;;;;5123545;27;20043;-77
2023/06/01 06:05:36;;;;;;;0.00;0.00;;;11.10;99.90;;;;;;5123231;27;20137;-77
2023/06/01 06:08:02;;;;;;;0.00;0.00;;;11.20;99.90;;;;;;5123410;27;20110;-77
2023/06/01 06:10:28;;;;;;;0.45;0.45;;;11.10;99.90;;;;;;5122854;27;20455;-77
2023/06/01 06:12:53;;;;;;;0.10;0.00;;;11.20;99.90;;;;;;5122883;27;20086;-77
2023/06/01 06:15:20;;;;;;;1.25;0.43;;;11.30;99.90;;;;;;5122962;27;20054;-77
2023/06/01 06:17:46;;;;;;;0.35;0.30;;;11.40;99.90;;;;;;5123358;27;20100;-77
2023/06/01 06:20:12;;;;;;;2.08;0.60;;;11.30;99.90;;;;;;5123395;27;20051;-77
2023/06/01 06:22:38;;;;;;;0.08;0.08;;;11.40;99.90;;;;;;5123539;27;20055;-77
2023/06/01 06:25:04;;;;;;;0.20;0.17;;;11.40;99.90;;;;;;5123047;27;20412;-77
2023/06/01 06:27:30;;;;;;;0.00;0.00;;;11.50;99.90;;;;;;5123453;27;20050;-76
2023/06/01 06:29:56;;;;;;;0.00;0.00;;;11.50;99.90;;;;;;5122906;27;20056;-76
2023/06/01 06:32:21;;;;;;;0.00;0.00;;;11.60;99.90;;;;;;5123251;27;20039;-77
2023/06/01 06:34:47;;;;;;;0.15;0.13;;;11.50;99.90;;;;;;5123342;27;20561;-77
2023/06/01 06:37:13;;;;;;;0.60;0.38;;;11.70;99.90;;;;;;5123026;28;20639;-77
2023/06/01 06:39:38;;;;;;;0.17;0.17;;;11.80;99.90;;;;;;5122974;28;20404;-77
2023/06/01 06:42:05;;;;;;;0.00;0.00;;;12.00;99.90;;;;;;5122934;28;20043;-77
2023/06/01 06:44:31;;;;;;;0.00;0.00;;;12.10;49.20;;;;;;5122761;28;20435;-77
2023/06/01 06:47:00;;;;;;;0.65;0.45;;;12.20;1.00;;;;;;5123167;28;20046;-77
2023/06/01 06:49:26;;;;;;;0.05;0.05;;;12.20;1.00;;;;;;5123254;28;20047;-76
2023/06/01 06:51:52;;;;;;;0.08;0.08;;;12.20;1.00;;;;;;5123233;28;20092;-77
2023/06/01 06:54:17;;;;;;;0.38;0.38;;;12.20;99.90;;;;;;5122721;28;20566;-77
2023/06/01 06:56:44;;;;;;;0.43;0.20;;;12.20;94.60;;;;;;5123246;27;20043;-77
2023/06/01 06:59:10;;;;;;;1.02;0.55;;;12.20;99.90;;;;;;5126753;27;20047;-77
2023/06/01 07:01:37;;;;;;;0.30;0.10;;;12.20;99.90;;;;;;5127026;27;20058;-77
2023/06/01 07:04:04;;;;;;;0.00;0.00;;;12.20;1.00;;;;;;5126804;27;20054;-77
2023/06/01 07:06:32;;;;;;;1.35;0.20;;;12.20;99.90;;;;;;5126742;27;20077;-77
2023/06/01 07:08:58;;;;;;;1.48;0.35;;;12.20;99.90;;;;;;5126595;27;20050;-77
2023/06/01 07:11:24;;;;;;;0.00;0.00;;;12.20;99.90;;;;;;5126391;27;20401;-77
2023/06/01 07:13:49;;;;;;;2.47;0.57;;;12.30;99.90;;;;;;5127222;27;20043;-77
2023/06/01 07:16:15;;;;;;;0.00;0.00;;;12.60;99.90;;;;;;5126877;27;20043;-77
2023/06/01 07:18:41;;;;;;;0.75;0.65;;;14.00;99.90;;;;;;5126494;27;20531;-77
2023/06/01 07:21:07;;;;;;;0.50;0.47;;;13.20;45.90;;;;;;5126725;27;20136;-77
2023/06/01 07:23:32;;;;;;;0.00;0.00;;;13.30;99.90;;;;;;5126446;27;20737;-77
2023/06/01 07:25:58;;;;;;;0.00;0.00;;;13.20;39.30;;;;;;5126275;27;20113;-77
2023/06/01 07:28:26;;;;;;;0.93;0.57;;;13.10;99.90;;;;;;5126480;27;20043;-77
2023/06/01 07:30:53;;;;;;;0.00;0.00;;;13.00;99.90;;;;;;5126412;27;20400;-77
2023/06/01 07:33:18;;;;;;;0.75;0.45;;;13.00;1.00;;;;;;5126312;27;20042;-77
2023/06/01 07:35:45;;;;;;;0.00;0.00;;;12.80;99.90;;;;;;5126243;27;20567;-77
2023/06/01 07:38:11;;;;;;;0.08;0.08;;;12.90;99.90;;;;;;5126178;27;20039;-77
2023/06/01 07:40:37;;;;;;;0.10;0.10;;;12.80;1.00;;;;;;5126122;27;20042;-77
2023/06/01 07:43:03;;;;;;;0.08;0.08;;;12.70;1.00;;;;;;5126750;27;20053;-77
2023/06/01 07:45:29;;;;;;;0.47;0.30;;;12.50;99.90;;;;;;5126013;27;20047;-77
2023/06/01 07:47:54;;;;;;;1.45;0.45;;;12.50;1.00;;;;;;5126130;27;20046;-77
2023/06/01 07:50:20;;;;;;;0.00;0.00;;;12.40;23.10;;;;;;5125924;27;20867;-77
2023/06/01 07:52:46;;;;;;;0.10;0.10;;;12.60;99.90;;;;;;5125969;27;20058;-77
2023/06/01 07:55:12;;;;;;;0.00;0.00;;;12.60;1.00;;;;;;5125584;27;20035;-77
2023/06/01 07:57:37;;;;;;;0.00;0.00;;;12.90;1.00;;;;;;5125837;27;20047;-77
2023/06/01 08:00:09;;;;;;;0.28;0.20;;;12.90;1.00;;;;;;5126006;27;20050;-77
2023/06/01 08:02:35;;;;;;;0.03;0.00;;;13.00;99.90;;;;;;5126089;27;20051;-77
2023/06/01 08:05:01;;;;;;;0.00;0.00;;;12.80;99.90;;;;;;5125769;27;20058;-77
2023/06/01 08:07:29;;;;;;;0.28;0.15;;;12.70;84.60;;;;;;5125733;27;20055;-77
2023/06/01 08:09:57;;;;;;;2.85;0.30;;;13.30;1.00;;;;;;5124578;27;20043;-77
2023/06/01 08:12:23;;;;;;;0.20;0.10;;;12.70;1.00;;;;;;5125636;27;20066;-77
2023/06/01 08:14:49;;;;;;;0.35;0.30;;;13.00;99.90;;;;;;5125558;27;20047;-77
2023/06/01 08:17:14;;;;;;;0.10;0.03;;;13.20;99.90;;;;;;5125482;27;20164;-77
2023/06/01 08:19:42;;;;;;;0.00;0.00;;;13.30;99.90;;;;;;5125468;27;20068;-77
2023/06/01 08:22:07;;;;;;;0.00;0.00;;;13.30;99.90;;;;;;5125595;27;20057;-77
2023/06/01 08:24:34;;;;;;;0.13;0.13;;;13.20;99.90;;;;;;5125132;27;20043;-77
2023/06/01 08:27:00;;;;;;;2.83;0.38;;;13.30;99.90;;;;;;5125657;27;20062;-77
2023/06/01 08:29:26;;;;;;;0.28;0.28;;;13.40;99.90;;;;;;5125367;27;20054;-77
2023/06/01 08:31:52;;;;;;;0.00;0.00;;;13.40;99.90;;;;;;5125400;27;20110;-77
2023/06/01 08:34:18;;;;;;;4.68;0.65;;;13.20;1.00;;;;;;5125088;27;20485;-77
2023/06/01 08:36:43;;;;;;;0.00;0.00;;;13.20;1.00;;;;;;5125092;27;20050;-77
2023/06/01 08:39:22;;;;;;;1.15;0.20;;;13.30;99.90;;;;;;5124718;27;20500;-77
2023/06/01 08:42:18;;;;;;;0.03;0.03;;;13.10;33.30;;;;;;5125176;27;20047;-77
2023/06/01 08:44:44;;;;;;;0.00;0.00;;;13.00;92.80;;;;;;5114121;27;20062;-77
2023/06/01 08:47:10;;;;;;;0.00;0.00;;;13.20;99.90;;;;;;5124775;27;20035;-76
2023/06/01 08:49:37;;;;;;;0.22;0.22;;;13.60;99.90;;;;;;5124616;27;20122;-76
2023/06/01 08:52:13;;;;;;;0.00;0.00;;;13.80;1.00;;;;;;5124874;27;20156;-76
2023/06/01 08:54:39;;;;;;;0.00;0.00;;;13.90;99.90;;;;;;5124756;27;20043;-76
2023/06/01 08:57:09;;;;;;;0.00;0.00;;;14.20;99.90;;;;;;5124769;27;20516;-76
2023/06/01 08:59:36;;;;;;;0.00;0.00;;;14.20;63.40;;;;;;5124800;27;20397;-76
2023/06/01 09:02:02;;;;;;;0.00;0.00;;;14.30;1.00;;;;;;5125004;27;20035;-76
2023/06/01 09:04:30;;;;;;;0.00;0.00;;;14.10;99.90;;;;;;5124836;27;20046;-76
2023/06/01 09:06:56;;;;;;;0.00;0.00;;;13.80;1.00;;;;;;5124427;27;20071;-77
2023/06/01 09:09:22;;;;;;;0.85;0.65;;;13.80;66.50;;;;;;5124373;27;20047;-76
2023/06/01 09:11:47;;;;;;;1.15;0.88;;;13.60;1.00;;;;;;5124283;27;20500;-77
2023/06/01 09:14:24;;;;;;;0.00;0.00;;;13.50;99.90;;;;;;5124186;27;20092;-77
2023/06/01 09:16:50;;;;;;;;;;;13.40;99.90;;;;;;5125315;27;20043;-76
2023/06/01 09:19:16;;;;;;;0.00;0.00;;;13.20;93.90;;;;;;5124197;27;20265;-76
2023/06/01 09:21:58;;;;;;;0.00;0.00;;;13.00;1.00;;;;;;5123924;27;20035;-76
2023/06/01 09:24:24;;;;;;;0.00;0.00;;;13.10;1.00;;;;;;5123916;27;20234;-76
2023/06/01 09:26:51;;;;;;;0.25;0.25;;;13.30;1.00;;;;;;5123727;27;20172;-76
2023/06/01 09:29:17;;;;;;;0.00;0.00;;;13.50;1.00;;;;;;5124245;27;20512;-76
2023/06/01 09:31:47;;;;;;;1.25;0.55;;;13.40;99.90;;;;;;5124300;27;20047;-76
2023/06/01 09:34:19;;;;;;;0.15;0.10;;;14.40;99.90;;;;;;5124322;27;20046;-76
2023/06/01 09:36:51;;;;;;;0.43;0.35;;;13.10;99.90;;;;;;5123934;27;20050;-76
2023/06/01 09:39:18;;;;;;;0.30;0.20;;;13.00;74.30;;;;;;5123740;27;20084;-76
2023/06/01 09:41:48;;;;;;;0.00;0.00;;;13.10;1.00;;;;;;5124107;27;20094;-76
2023/06/01 09:44:21;;;;;;;0.52;0.52;;;13.20;1.00;;;;;;5123916;27;20039;-76
2023/06/01 09:46:52;;;;;;;0.25;0.25;;;13.50;99.90;;;;;;5123932;27;20459;-77
2023/06/01 09:49:24;;;;;;;0.80;0.47;;;13.70;99.90;;;;;;5123992;27;20425;-76
2023/06/01 09:51:50;;;;;;;0.00;0.00;;;13.90;72.80;;;;;;5123848;27;20043;-77
2023/06/01 09:54:26;;;;;;;0.73;0.70;;;14.10;99.90;;;;;;5123703;27;20047;-77
2023/06/01 09:56:53;;;;;;;;;;;14.30;1.00;;;;;;5124253;27;20043;-77
2023/06/01 09:59:20;;;;;;;0.38;0.20;;;14.60;99.90;;;;;;5123496;27;19939;-77
2023/06/01 10:01:50;;;;;;;0.13;0.08;;;14.90;99.90;;;;;;5123689;27;20370;-77
2023/06/01 10:04:21;;;;;;;0.00;0.00;;;15.20;90.80;;;;;;5123562;27;20039;-77
2023/06/01 10:06:47;;;;;;;0.00;0.00;;;15.50;99.90;;;;;;5123765;27;20047;-77
2023/06/01 10:09:15;;;;;;;0.80;0.60;;;15.60;90.50;;;;;;5104411;27;20101;-77
2023/06/01 10:11:41;;;;;;;0.15;0.15;;;15.90;83.20;;;;;;5123046;27;20413;-77
2023/06/01 10:14:08;;;;;;;1.55;0.80;;;16.10;1.00;;;;;;5123223;27;20054;-77
2023/06/01 10:16:35;;;;;;;0.95;0.30;;;15.90;1.00;;;;;;5123168;27;20050;-77
2023/06/01 10:19:01;;;;;;;0.00;0.00;;;16.20;1.00;;;;;;5122647;27;20405;-77
2023/06/01 10:21:28;;;;;;;0.28;0.28;;;16.30;1.00;;;;;;5123326;27;20070;-78
2023/06/01 10:23:54;;;;;;;0.90;0.40;;;16.40;1.00;;;;;;5123240;27;20054;-77
2023/06/01 10:26:21;;;;;;;0.00;0.00;;;16.30;99.90;;;;;;5123140;27;20062;-77
2023/06/01 10:28:49;;;;;;;0.17;0.17;;;16.10;99.90;;;;;;5123257;27;20104;-75
2023/06/01 10:31:38;;;;;;;0.00;0.00;;;16.20;99.90;;;;;;5104052;28;20047;-75
2023/06/01 10:34:05;;;;;;;0.65;0.47;;;16.50;1.00;;;;;;5122962;27;20106;-75
2023/06/01 10:36:52;;;;;;;0.30;0.17;;;16.60;99.90;;;;;;5123101;27;20050;-74
2023/06/01 10:39:25;;;;;;;0.10;0.05;;;16.70;99.90;;;;;;5122913;28;20516;-75
2023/06/01 10:41:52;;;;;;;0.05;0.05;;;16.50;99.90;;;;;;5122693;28;20050;-75
2023/06/01 10:44:39;;;;;;;1.17;0.55;;;16.70;99.90;;;;;;5122764;28;20050;-75
2023/06/01 10:47:25;;;;;;;0.80;0.08;;;16.40;99.90;;;;;;5122788;28;20054;-75
2023/06/01 10:49:50;;;;;;;0.60;0.52;;;16.20;99.90;;;;;;5087194;28;20095;-77
2023/06/01 10:52:30;;;;;;;0.55;0.38;;;16.70;99.90;;;;;;5122477;28;20547;-77
2023/06/01 10:55:15;;;;;;;0.10;0.10;;;16.60;99.90;;;;;;5122863;28;20047;-78
2023/06/01 10:57:45;;;;;;;0.00;0.00;;;16.80;99.90;;;;;;5122741;27;20039;-77
2023/06/01 11:00:17;;;;;;;0.00;0.00;;;17.10;99.90;;;;;;5122307;28;20420;-77
2023/06/01 11:02:50;;;;;;;0.00;0.00;;;17.10;99.90;;;;;;5122552;28;20047;-77
2023/06/01 11:05:38;;;;;;;0.20;0.20;;;16.80;99.90;;;;;;5122934;28;20062;-77
2023/06/01 11:08:29;;;;;;;0.45;0.40;;;17.00;99.90;;;;;;5122586;28;20556;-77
2023/06/01 11:11:00;;;;;;;1.05;0.75;;;17.60;99.90;;;;;;5122252;28;20400;-77
2023/06/01 11:13:31;;;;;;;2.83;0.80;;;16.90;99.90;;;;;;5122801;28;20051;-77
2023/06/01 11:16:09;;;;;;;0.10;0.10;;;16.80;99.90;;;;;;5123170;28;20398;-77
2023/06/01 11:18:41;;;;;;;0.13;0.13;;;17.10;99.90;;;;;;5122638;28;20086;-77
2023/06/01 11:21:17;;;;;;;2.13;0.98;;;17.10;99.90;;;;;;5122863;28;20130;-77
2023/06/01 11:23:43;;;;;;;;;;;17.90;99.90;;;;;;5123012;28;20502;-78
2023/06/01 11:26:09;;;;;;;0.00;0.00;;;18.10;99.90;;;;;;5122585;28;19923;-77
2023/06/01 11:28:35;;;;;;;0.47;0.38;;;18.30;99.90;;;;;;5122723;28;20562;-77
2023/06/01 11:31:02;;;;;;;0.65;0.65;;;17.90;99.90;;;;;;5123082;28;20054;-77
2023/06/01 11:33:29;;;;;;;0.73;0.40;;;18.40;99.90;;;;;;5122783;28;20447;-77
2023/06/01 11:36:04;;;;;;;0.32;0.32;;;18.30;99.90;;;;;;5122698;28;20086;-77
2023/06/01 11:38:41;;;;;;;13.02;0.38;;;18.30;99.90;;;;;;5122898;28;20046;-76
2023/06/01 11:41:08;;;;;;;0.32;0.32;;;18.10;99.90;;;;;;5122205;28;20068;-77
2023/06/01 11:43:34;;;;;;;0.73;0.45;;;18.00;99.90;;;;;;5124316;27;20058;-77
2023/06/01 11:46:05;;;;;;;0.43;0.43;;;18.40;99.90;;;;;;5126099;27;20039;-76
2023/06/01 11:48:31;;;;;;;0.10;0.10;;;18.40;99.90;;;;;;5125777;27;20055;-75
2023/06/01 11:50:59;;;;;;;0.00;0.00;;;18.20;99.90;;;;;;5125923;27;20046;-75
2023/06/01 11:53:24;;;;;;;1.27;0.77;;;18.70;99.90;;;;;;5107588;27;20497;-75
2023/06/01 11:55:54;;;;;;;0.32;0.32;;;18.50;99.90;;;;;;5125844;27;20043;-75
2023/06/01 11:58:22;;;;;;;0.00;0.00;;;18.40;99.90;;;;;;5125811;27;20637;-74
2023/06/01 12:00:47;;;;;;;1.27;0.43;;;18.80;99.90;;;;;;5125461;27;20131;-75
2023/06/01 12:03:13;;;;;;;0.00;0.00;;;19.00;99.90;;;;;;5125809;27;20101;-75
2023/06/01 12:05:47;;;;;;;0.28;0.17;;;18.60;99.90;;;;;;5125771;27;20039;-74
2023/06/01 12:08:20;;;;;;;0.10;0.10;;;18.30;99.90;;;;;;5125728;27;20212;-74
2023/06/01 12:10:50;;;;;;;0.08;0.08;;;17.90;99.90;;;;;;5125521;27;20507;-74
2023/06/01 12:13:16;;;;;;;0.20;0.20;;;18.40;99.90;;;;;;5124961;27;20472;-74
2023/06/01 12:15:42;;;;;;;0.30;0.30;;;18.70;99.90;;;;;;5125493;27;20111;-74
2023/06/01 12:18:08;;;;;;;0.10;0.10;;;18.70;99.90;;;;;;5107224;27;20058;-74
2023/06/01 12:20:39;;;;;;;0.10;0.10;;;18.50;99.90;;;;;;5125690;27;20046;-74
2023/06/01 12:23:18;;;;;;;0.32;0.32;;;18.50;99.90;;;;;;5125554;27;20419;-74
2023/06/01 12:25:56;;;;;;;0.08;0.08;;;18.00;99.90;;;;;;5125573;27;20504;-74
2023/06/01 12:28:24;;;;;;;1.40;0.60;;;17.80;99.90;;;;;;5125395;27;20043;-74
2023/06/01 12:31:09;;;;;;;0.20;0.10;;;17.00;99.90;;;;;;5106869;27;20455;-74
2023/06/01 12:33:35;;;;;;;0.25;0.25;;;17.20;99.90;;;;;;5124625;27;20114;-74
2023/06/01 12:36:06;;;;;;;0.10;0.10;;;16.80;99.90;;;;;;5125225;27;20421;-74
2023/06/01 12:38:51;;;;;;;3.10;0.47;;;16.60;99.90;;;;;;5125073;27;20595;-74
2023/06/01 12:41:18;;;;;;;0.08;0.03;;;16.50;99.90;;;;;;5124906;27;20229;-74
2023/06/01 12:43:48;;;;;;;2.08;0.13;;;16.60;99.90;;;;;;5124864;27;20832;-73
2023/06/01 12:46:20;;;;;;;0.10;0.10;;;16.90;99.90;;;;;;5125110;27;20094;-74
2023/06/01 12:48:46;;;;;;;0.20;0.20;;;17.00;99.90;;;;;;5124602;27;20401;-74
2023/06/01 12:51:12;;;;;;;0.00;0.00;;;17.20;99.90;;;;;;5124637;27;20047;-74
2023/06/01 12:53:39;;;;;;;0.10;0.10;;;17.30;99.90;;;;;;5124682;27;20134;-73
2023/06/01 12:56:05;;;;;;;0.00;0.00;;;17.20;99.90;;;;;;5123862;27;20188;-74